Time;durP1;ratioP1;P1;durP2;ratioP2;P2;SDS_P1;SDS_P2;PMS_P1;PMS_P2;Temp;Humidity;BMP_temperature;BMP_pressure;BME280_temperature;BME280_humidity;BME280_pressure;Samples;Min_cycle;Max_cycle;Signal;HPM_P1;HPM_P2
2023/06/01 00:01:12;;;;;;;4.90;3.00;;;;;;;12.90;60.06;100650.75;108254;1254;72599;-79
2023/06/01 00:03:39;;;;;;;6.20;3.10;;;;;;;12.92;60.08;100651.27;107814;1257;75354;-78
2023/06/01 00:06:07;;;;;;;5.90;2.90;;;;;;;12.92;60.29;100656.10;107838;1258;72693;-79
2023/06/01 00:08:35;;;;;;;5.90;2.70;;;;;;;12.89;60.44;100655.52;107918;1256;61217;-79
2023/06/01 00:11:02;;;;;;;4.60;2.70;;;;;;;12.87;60.57;100653.05;107946;1256;60242;-79
2023/06/01 00:13:30;;;;;;;4.70;2.50;;;;;;;12.88;60.58;100652.36;107941;1254;72724;-79
2023/06/01 00:15:57;;;;;;;4.10;2.50;;;;;;;12.83;60.62;100651.55;107964;1254;72693;-79
2023/06/01 00:18:26;;;;;;;4.70;2.60;;;;;;;12.79;60.76;100653.59;107999;1254;71368;-78
2023/06/01 00:20:53;;;;;;;4.00;2.60;;;;;;;12.72;60.79;100649.42;107983;1254;61872;-78
2023/06/01 00:23:21;;;;;;;4.20;2.60;;;;;;;12.68;60.95;100648.19;108946;1254;60574;-79
2023/06/01 00:25:48;;;;;;;5.40;2.90;;;;;;;12.64;61.11;100649.42;109163;1256;73966;-79
2023/06/01 00:28:15;;;;;;;5.20;2.60;;;;;;;12.61;61.13;100647.27;108708;1257;71571;-78
2023/06/01 00:30:43;;;;;;;3.90;2.30;;;;;;;12.61;61.28;100648.58;107865;1256;72479;-79
2023/06/01 00:33:10;;;;;;;5.10;2.90;;;;;;;12.63;61.38;100646.79;107917;1256;62079;-79
2023/06/01 00:35:37;;;;;;;6.00;2.60;;;;;;;12.65;61.37;100644.98;107996;1258;60456;-79
2023/06/01 00:38:06;;;;;;;8.20;3.10;;;;;;;12.66;61.53;100642.55;108040;1254;72860;-79
2023/06/01 00:40:34;;;;;;;5.10;3.00;;;;;;;12.69;61.44;100642.99;107923;1257;71918;-80
2023/06/01 00:43:01;;;;;;;5.30;2.90;;;;;;;12.71;61.40;100643.86;107913;1258;72523;-78
2023/06/01 00:45:28;;;;;;;5.30;2.60;;;;;;;12.73;61.46;100644.16;107903;1256;60424;-78
2023/06/01 00:47:55;;;;;;;4.30;2.60;;;;;;;12.74;61.34;100647.81;107873;1257;60073;-78
2023/06/01 00:50:23;;;;;;;4.80;2.50;;;;;;;12.74;61.09;100645.20;107933;1257;74527;-78
2023/06/01 00:52:50;;;;;;;5.10;2.80;;;;;;;12.73;61.08;100644.96;107859;1257;72733;-78
2023/06/01 00:55:17;;;;;;;4.40;2.70;;;;;;;12.72;61.10;100642.30;107875;1257;72516;-77
2023/06/01 00:57:44;;;;;;;5.30;2.80;;;;;;;12.72;61.09;100645.14;107902;1255;60851;-78
2023/06/01 01:00:11;;;;;;;5.10;2.70;;;;;;;12.71;61.19;100646.96;107942;1255;59798;-78
2023/06/01 01:02:40;;;;;;;3.60;2.50;;;;;;;12.71;61.17;100649.00;108003;1255;74016;-78
2023/06/01 01:05:12;;;;;;;4.40;2.90;;;;;;;12.69;61.15;100650.17;107922;1254;71487;-78
2023/06/01 01:07:41;;;;;;;5.20;2.70;;;;;;;12.67;61.10;100648.30;107958;1258;72557;-78
2023/06/01 01:10:35;;;;;;;5.40;3.00;;;;;;;12.64;61.13;100652.05;108728;1255;62076;-78
2023/06/01 01:13:27;;;;;;;5.10;3.10;;;;;;;12.63;61.19;100653.60;108570;1256;60423;-78
2023/06/01 01:16:01;;;;;;;4.90;3.00;;;;;;;12.61;61.28;100656.02;107851;1257;72604;-78
2023/06/01 01:18:33;;;;;;;6.80;3.60;;;;;;;12.60;61.18;100655.91;107715;1257;70980;-77
2023/06/01 01:21:21;;;;;;;6.00;3.00;;;;;;;12.59;61.31;100657.67;107848;1256;71267;-78
2023/06/01 01:24:11;;;;;;;7.70;3.20;;;;;;;12.56;61.30;100657.19;107838;1256;60794;-78
2023/06/01 01:26:43;;;;;;;6.50;3.30;;;;;;;12.52;61.46;100650.23;107761;1257;60278;-80
2023/06/01 01:29:12;;;;;;;6.80;3.40;;;;;;;12.51;61.56;100652.27;108007;1254;75428;-79
2023/06/01 01:31:39;;;;;;;5.00;2.90;;;;;;;12.49;61.60;100653.00;107724;1257;73151;-80
2023/06/01 01:34:06;;;;;;;6.40;3.10;;;;;;;12.47;61.78;100650.48;107660;1263;72679;-80
2023/06/01 01:36:35;;;;;;;5.50;3.10;;;;;;;12.43;61.76;100656.16;108095;1257;60415;-79
2023/06/01 01:39:03;;;;;;;6.10;3.00;;;;;;;12.39;61.82;100658.84;108173;1254;60358;-81
2023/06/01 01:41:30;;;;;;;6.20;3.00;;;;;;;12.34;61.84;100659.73;108028;1256;73816;-80
2023/06/01 01:43:58;;;;;;;4.20;3.00;;;;;;;12.30;62.00;100660.00;107914;1257;72551;-81
2023/06/01 01:47:10;;;;;;;5.00;3.20;;;;;;;12.26;62.14;100656.52;107743;1256;72818;-80
2023/06/01 01:49:43;;;;;;;4.50;2.80;;;;;;;12.20;62.38;100654.75;108033;1254;60824;-81
2023/06/01 01:52:16;;;;;;;4.70;3.10;;;;;;;12.18;62.58;100658.92;108378;1257;60447;-81
2023/06/01 01:54:45;;;;;;;5.50;2.90;;;;;;;12.19;62.72;100660.14;107950;1257;73892;-81
2023/06/01 01:57:13;;;;;;;5.10;3.10;;;;;;;12.19;62.85;100657.58;107778;1255;72796;-79
2023/06/01 01:59:41;;;;;;;5.00;2.70;;;;;;;12.21;62.87;100660.20;108045;1254;71180;-81
2023/06/01 02:02:09;;;;;;;6.40;3.00;;;;;;;12.18;63.01;100663.31;108052;1255;61726;-79
2023/06/01 02:04:40;;;;;;;5.60;3.50;;;;;;;12.15;63.23;100663.52;108168;1256;60341;-80
2023/06/01 02:07:08;;;;;;;6.20;3.20;;;;;;;12.11;63.31;100667.89;107833;1254;218815;-81
2023/06/01 02:09:34;;;;;;;5.10;3.00;;;;;;;12.08;63.49;100669.88;108008;1257;72724;-81
2023/06/01 02:12:02;;;;;;;5.30;3.00;;;;;;;12.08;63.57;100665.31;108007;1255;71504;-82
2023/06/01 02:14:30;;;;;;;5.30;3.30;;;;;;;12.10;63.74;100665.58;108032;1254;61978;-80
2023/06/01 02:16:57;;;;;;;5.30;3.20;;;;;;;12.12;63.94;100667.48;108149;1254;60366;-80
2023/06/01 02:19:24;;;;;;;5.80;3.00;;;;;;;12.13;63.99;100664.95;108136;1257;73666;-80
2023/06/01 02:21:52;;;;;;;4.70;3.10;;;;;;;12.13;64.11;100669.18;108019;1256;72790;-80
2023/06/01 02:24:20;;;;;;;8.80;3.00;;;;;;;12.14;64.18;100666.56;108193;1256;71284;-80
2023/06/01 02:26:53;;;;;;;4.60;2.90;;;;;;;12.10;64.39;100667.52;108069;1254;60337;-81
2023/06/01 02:29:23;;;;;;;4.30;3.00;;;;;;;12.03;64.53;100665.89;108190;1254;60331;-81
2023/06/01 02:31:50;;;;;;;4.00;2.70;;;;;;;11.98;64.73;100665.18;108083;1257;71875;-81
2023/06/01 02:34:18;;;;;;;4.20;2.90;;;;;;;11.94;64.95;100665.45;108185;1254;71601;-80
2023/06/01 02:36:46;;;;;;;4.20;2.90;;;;;;;11.97;65.20;100667.00;107968;1254;72698;-81
2023/06/01 02:39:14;;;;;;;4.90;2.80;;;;;;;12.03;65.35;100670.17;108085;1255;61687;-80
2023/06/01 02:41:41;;;;;;;6.80;3.00;;;;;;;12.08;65.54;100672.23;107971;1255;60286;-80
2023/06/01 02:44:08;;;;;;;6.30;3.30;;;;;;;12.14;65.60;100670.48;107971;1257;73794;-80
2023/06/01 02:46:35;;;;;;;4.20;2.80;;;;;;;12.18;65.69;100670.48;107939;1257;72667;-81
2023/06/01 02:49:03;;;;;;;5.00;2.80;;;;;;;12.25;65.77;100671.14;107921;1256;73733;-80
2023/06/01 02:51:31;;;;;;;5.10;2.70;;;;;;;12.29;65.79;100670.98;107830;1256;62061;-80
2023/06/01 02:54:06;;;;;;;6.10;3.20;;;;;;;12.34;66.02;100671.69;108005;1255;62046;-81
2023/06/01 02:56:34;;;;;;;4.40;3.10;;;;;;;12.34;66.04;100675.21;108108;1255;73904;-80
2023/06/01 02:59:03;;;;;;;4.90;3.30;;;;;;;12.34;66.12;100673.98;107959;1259;72599;-81
2023/06/01 03:01:35;;;;;;;4.80;3.10;;;;;;;12.34;66.31;100673.23;108112;1257;72699;-81
2023/06/01 03:04:07;;;;;;;4.50;2.90;;;;;;;12.39;66.39;100673.15;107998;1259;60568;-81
2023/06/01 03:06:37;;;;;;;5.10;2.80;;;;;;;12.47;66.47;100669.46;107965;1254;60476;-80
2023/06/01 03:09:22;;;;;;;6.60;2.90;;;;;;;12.55;66.54;100665.66;108122;1254;71903;-80
2023/06/01 03:11:56;;;;;;;5.30;3.00;;;;;;;12.63;66.67;100668.66;107904;1257;72680;-80
2023/06/01 03:14:23;;;;;;;5.60;3.20;;;;;;;12.71;66.71;100668.13;108004;1254;72750;-80
2023/06/01 03:16:52;;;;;;;6.40;3.40;;;;;;;12.77;66.83;100669.48;108004;1256;61851;-80
2023/06/01 03:19:21;;;;;;;5.30;3.20;;;;;;;12.86;66.83;100665.92;108077;1254;60299;-81
2023/06/01 03:21:53;;;;;;;5.30;3.40;;;;;;;12.98;66.88;100671.77;108033;1254;73966;-82
2023/06/01 03:24:27;;;;;;;6.80;3.50;;;;;;;13.11;67.04;100669.66;108068;1256;72697;-79
2023/06/01 03:26:55;;;;;;;6.40;3.30;;;;;;;13.26;66.92;100668.20;108028;1255;72397;-80
2023/06/01 03:29:22;;;;;;;6.30;4.50;;;;;;;13.40;66.93;100672.19;108043;1256;62094;-81
2023/06/01 03:31:49;;;;;;;5.80;3.40;;;;;;;13.56;66.97;100666.40;107956;1254;60530;-81
2023/06/01 03:34:21;;;;;;;7.20;3.40;;;;;;;13.73;66.88;100662.78;108077;1257;73676;-81
2023/06/01 03:36:48;;;;;;;6.50;3.80;;;;;;;13.86;66.82;100665.35;107988;1257;71444;-80
2023/06/01 03:39:15;;;;;;;9.10;3.80;;;;;;;14.00;66.70;100662.81;108074;1257;72757;-82
2023/06/01 03:41:43;;;;;;;7.20;3.70;;;;;;;14.16;66.68;100666.29;108181;1256;61916;-81
2023/06/01 03:44:11;;;;;;;6.40;3.80;;;;;;;14.31;66.42;100667.80;107973;1257;60380;-81
2023/06/01 03:46:39;;;;;;;5.80;3.90;;;;;;;14.44;66.27;100664.00;107946;1254;73745;-81
2023/06/01 03:49:07;;;;;;;5.70;3.70;;;;;;;14.57;66.04;100658.98;108030;1256;72535;-82
2023/06/01 03:51:35;;;;;;;6.50;4.00;;;;;;;14.69;65.83;100656.15;107935;1255;73162;-81
2023/06/01 03:54:02;;;;;;;6.50;3.80;;;;;;;14.80;65.76;100660.03;108045;1258;60270;-80
2023/06/01 03:56:29;;;;;;;6.50;3.80;;;;;;;14.92;65.75;100657.17;108007;1256;59240;-81
2023/06/01 03:59:00;;;;;;;5.60;3.70;;;;;;;15.08;65.70;100655.79;108078;1254;73970;-81
2023/06/01 04:01:32;;;;;;;7.10;4.00;;;;;;;15.27;65.61;100653.61;108050;1257;72033;-81
2023/06/01 04:03:59;;;;;;;6.40;4.00;;;;;;;15.47;65.45;100646.23;107858;1259;71504;-80
2023/06/01 04:06:29;;;;;;;5.70;3.70;;;;;;;15.65;65.40;100648.59;108076;1254;60877;-80
2023/06/01 04:08:58;;;;;;;6.20;3.70;;;;;;;15.83;65.14;100644.56;108035;1255;60177;-80
2023/06/01 04:11:26;;;;;;;7.90;3.60;;;;;;;16.03;64.98;100642.36;108188;1255;73810;-80
2023/06/01 04:13:53;;;;;;;6.60;4.20;;;;;;;16.23;64.83;100636.91;108129;1257;72105;-81
2023/06/01 04:16:20;;;;;;;7.10;3.70;;;;;;;16.41;64.66;100638.10;107972;1259;71427;-81
2023/06/01 04:18:47;;;;;;;5.10;3.20;;;;;;;16.60;64.27;100633.08;108039;1257;60820;-80
2023/06/01 04:21:17;;;;;;;6.20;3.20;;;;;;;16.80;63.96;100632.60;108060;1259;59888;-81
2023/06/01 04:23:47;;;;;;;6.60;3.70;;;;;;;17.01;63.61;100632.23;107939;1254;75078;-82
2023/06/01 04:26:15;;;;;;;8.20;3.50;;;;;;;17.21;62.98;100628.79;107819;1254;72734;-81
2023/06/01 04:28:46;;;;;;;6.30;3.40;;;;;;;17.37;62.31;100627.55;107990;1257;73735;-81
2023/06/01 04:31:19;;;;;;;9.60;3.50;;;;;;;17.52;61.49;100626.21;108104;1257;61878;-81
2023/06/01 04:33:56;;;;;;;4.90;3.10;;;;;;;17.68;60.93;100626.70;108112;1254;60447;-81
2023/06/01 04:36:24;;;;;;;6.30;3.20;;;;;;;17.81;60.33;100626.49;108034;1255;73920;-81
2023/06/01 04:38:58;;;;;;;6.40;2.90;;;;;;;17.95;59.90;100630.39;108013;1256;74114;-81
2023/06/01 04:41:25;;;;;;;5.30;3.20;;;;;;;18.11;59.10;100623.34;107906;1257;72627;-79
2023/06/01 04:43:52;;;;;;;6.20;3.10;;;;;;;18.25;58.20;100624.80;107995;1257;60268;-82
2023/06/01 04:46:23;;;;;;;5.70;2.90;;;;;;;18.41;57.36;100623.79;107988;1255;60458;-82
2023/06/01 04:48:59;;;;;;;6.40;3.00;;;;;;;18.58;55.97;100626.51;108084;1254;73887;-81
2023/06/01 04:51:28;;;;;;;4.80;2.50;;;;;;;18.72;54.23;100620.91;108061;1257;73775;-84
2023/06/01 04:53:56;;;;;;;5.80;2.80;;;;;;;18.83;52.17;100617.39;108158;1257;72634;-82
2023/06/01 04:56:26;;;;;;;5.80;2.70;;;;;;;18.92;51.03;100615.65;108001;1257;60869;-81
2023/06/01 04:58:54;;;;;;;4.90;2.60;;;;;;;19.02;49.97;100614.57;108219;1254;60334;-81
2023/06/01 05:01:24;;;;;;;5.90;2.70;;;;;;;19.13;48.88;100614.85;108107;1254;73918;-80
2023/06/01 05:03:53;;;;;;;5.50;2.70;;;;;;;19.27;48.02;100616.34;108186;1259;73846;-82
2023/06/01 05:06:21;;;;;;;6.10;3.00;;;;;;;19.38;47.26;100614.00;108046;1257;73679;-84
2023/06/01 05:08:51;;;;;;;4.50;2.80;;;;;;;19.49;46.91;100606.58;108111;1255;60774;-80
2023/06/01 05:11:21;;;;;;;4.20;2.60;;;;;;;19.61;46.16;100605.11;108101;1255;60297;-80
2023/06/01 05:13:48;;;;;;;4.90;2.40;;;;;;;19.73;45.48;100602.87;107982;1254;72628;-81
2023/06/01 05:16:15;;;;;;;5.70;2.50;;;;;;;19.80;44.14;100599.13;108106;1255;72807;-82
2023/06/01 05:18:42;;;;;;;3.70;2.50;;;;;;;19.86;43.56;100597.86;107959;1256;72921;-82
2023/06/01 05:21:09;;;;;;;5.10;2.30;;;;;;;19.89;42.21;100600.21;107965;1256;61728;-82
2023/06/01 05:23:36;;;;;;;4.30;2.80;;;;;;;19.93;42.36;100597.77;108020;1254;60438;-81
2023/06/01 05:26:03;;;;;;;4.50;2.60;;;;;;;19.98;42.05;100596.89;107957;1256;72480;-80
2023/06/01 05:28:38;;;;;;;4.40;2.40;;;;;;;20.08;41.90;100592.39;108046;1258;73787;-81
2023/06/01 05:31:08;;;;;;;5.70;2.60;;;;;;;20.20;41.51;100590.59;108027;1254;72634;-81
2023/06/01 05:33:42;;;;;;;4.80;2.50;;;;;;;20.33;41.17;100588.77;108082;1257;60445;-81
2023/06/01 05:36:10;;;;;;;4.90;2.00;;;;;;;20.46;40.70;100587.90;107975;1254;60334;-81
2023/06/01 05:38:38;;;;;;;4.50;2.70;;;;;;;20.59;40.25;100590.17;108010;1257;72634;-79
2023/06/01 05:41:05;;;;;;;3.60;2.50;;;;;;;20.69;40.45;100583.48;107969;1257;71465;-79
2023/06/01 05:43:35;;;;;;;5.00;2.70;;;;;;;20.84;40.44;100582.64;108042;1259;72421;-79
2023/06/01 05:46:03;;;;;;;4.70;2.60;;;;;;;20.98;40.32;100580.48;108179;1257;59403;-80
2023/06/01 05:48:30;;;;;;;4.20;2.60;;;;;;;21.10;40.33;100578.08;107980;1260;60623;-80
2023/06/01 05:50:57;;;;;;;4.60;2.70;;;;;;;21.24;40.06;100578.17;108059;1259;73919;-80
2023/06/01 05:53:25;;;;;;;5.40;2.80;;;;;;;21.41;40.47;100575.98;108134;1257;74011;-82
2023/06/01 05:55:53;;;;;;;4.90;2.30;;;;;;;21.60;39.94;100582.93;108079;1259;73631;-81
2023/06/01 05:58:20;;;;;;;4.60;2.50;;;;;;;21.75;39.58;100582.66;108056;1257;61444;-81
2023/06/01 06:00:47;;;;;;;5.30;2.50;;;;;;;21.90;38.81;100582.73;108041;1255;61808;-81
2023/06/01 06:03:18;;;;;;;5.10;2.50;;;;;;;22.04;38.21;100579.74;107930;1259;73894;-80
2023/06/01 06:05:45;;;;;;;4.50;2.40;;;;;;;22.16;37.96;100584.61;107920;1257;72649;-81
2023/06/01 06:08:12;;;;;;;4.80;2.50;;;;;;;22.27;36.98;100577.32;107947;1255;72628;-81
2023/06/01 06:10:41;;;;;;;4.70;2.50;;;;;;;22.36;37.35;100576.14;108043;1254;60446;-80
2023/06/01 06:13:08;;;;;;;6.40;2.80;;;;;;;22.49;37.16;100580.10;108157;1256;61088;-81
2023/06/01 06:15:35;;;;;;;5.60;2.70;;;;;;;22.63;36.29;100577.63;108133;1255;73854;-80
2023/06/01 06:18:02;;;;;;;4.60;3.00;;;;;;;22.76;35.41;100575.55;107931;1259;71854;-82
2023/06/01 06:20:29;;;;;;;4.30;2.70;;;;;;;22.89;34.39;100576.86;108048;1257;73985;-80
2023/06/01 06:22:56;;;;;;;5.90;2.90;;;;;;;22.99;33.53;100573.61;108047;1254;60335;-80
2023/06/01 06:25:23;;;;;;;4.20;2.40;;;;;;;23.07;32.27;100573.73;108034;1259;60333;-80
2023/06/01 06:27:50;;;;;;;6.70;3.00;;;;;;;23.17;32.13;100570.31;107990;1254;73963;-80
2023/06/01 06:30:17;;;;;;;3.80;2.30;;;;;;;23.25;31.99;100571.00;108037;1257;72726;-82
2023/06/01 06:32:44;;;;;;;6.70;2.90;;;;;;;23.34;32.12;100573.15;107997;1255;72686;-81
2023/06/01 06:35:14;;;;;;;6.00;2.80;;;;;;;23.46;32.16;100570.63;108119;1254;60360;-82
2023/06/01 06:37:41;;;;;;;5.60;2.40;;;;;;;23.58;31.08;100567.41;108048;1259;60414;-81
2023/06/01 06:40:08;;;;;;;4.40;2.60;;;;;;;23.62;30.45;100563.70;108036;1254;73769;-81
2023/06/01 06:42:35;;;;;;;5.00;2.50;;;;;;;23.66;30.50;100564.05;108071;1255;71532;-81
2023/06/01 06:45:04;;;;;;;9.10;2.90;;;;;;;23.72;30.28;100559.84;108004;1254;71404;-82
2023/06/01 06:47:32;;;;;;;8.20;2.50;;;;;;;23.82;29.94;100560.17;107945;1259;60513;-80
2023/06/01 06:50:00;;;;;;;5.00;2.40;;;;;;;23.89;29.95;100560.00;108077;1254;60391;-80
2023/06/01 06:52:28;;;;;;;5.30;2.20;;;;;;;23.97;30.06;100561.84;108055;1254;73543;-79
2023/06/01 06:54:54;;;;;;;7.20;2.30;;;;;;;24.04;29.51;100559.09;108027;1258;71623;-80
2023/06/01 06:57:21;;;;;;;5.40;2.00;;;;;;;24.16;29.41;100560.43;107983;1260;72496;-80
2023/06/01 06:59:48;;;;;;;4.90;2.60;;;;;;;24.30;29.03;100563.92;107998;1259;60125;-81
2023/06/01 07:02:15;;;;;;;6.60;2.20;;;;;;;24.41;29.64;100559.06;108055;1260;60345;-82
2023/06/01 07:04:43;;;;;;;5.60;2.40;;;;;;;24.53;29.34;100557.67;107965;1255;72631;-80
2023/06/01 07:07:09;;;;;;;5.40;2.00;;;;;;;24.65;28.49;100558.12;108045;1258;72665;-80
2023/06/01 07:09:37;;;;;;;4.10;1.90;;;;;;;24.72;27.87;100553.23;108066;1254;71788;-80
2023/06/01 07:12:05;;;;;;;5.90;2.10;;;;;;;24.76;27.79;100551.00;108066;1259;61012;-80
2023/06/01 07:14:34;;;;;;;6.50;1.90;;;;;;;24.82;27.72;100547.77;108113;1256;60539;-82
2023/06/01 07:17:01;;;;;;;4.20;1.80;;;;;;;24.88;27.37;100550.04;108084;1254;75099;-82
2023/06/01 07:19:32;;;;;;;3.70;2.10;;;;;;;25.01;27.15;100541.52;108092;1254;73169;-80
2023/06/01 07:22:00;;;;;;;6.70;3.80;;;;;;;25.08;26.83;100543.31;108031;1260;73954;-80
2023/06/01 07:24:27;;;;;;;6.50;2.30;;;;;;;25.12;27.04;100545.20;108184;1254;60489;-81
2023/06/01 07:26:55;;;;;;;5.00;1.90;;;;;;;25.20;26.56;100546.44;108138;1254;62872;-80
2023/06/01 07:29:22;;;;;;;3.20;1.70;;;;;;;25.27;25.97;100543.39;108120;1256;75087;-79
2023/06/01 07:31:52;;;;;;;4.20;1.90;;;;;;;25.32;26.24;100545.38;108044;1256;72545;-80
2023/06/01 07:34:19;;;;;;;5.70;2.10;;;;;;;25.45;26.03;100542.60;108091;1258;73991;-81
2023/06/01 07:36:47;;;;;;;7.80;2.10;;;;;;;25.53;26.10;100537.14;108027;1257;61784;-83
2023/06/01 07:39:14;;;;;;;5.00;2.00;;;;;;;25.61;25.93;100532.94;108150;1255;61616;-82
2023/06/01 07:41:44;;;;;;;3.90;1.70;;;;;;;25.68;26.08;100529.79;108103;1254;74577;-81
2023/06/01 07:44:12;;;;;;;4.80;2.10;;;;;;;25.79;25.76;100524.25;108158;1258;72848;-81
2023/06/01 07:46:39;;;;;;;4.50;2.00;;;;;;;25.92;25.27;100520.77;108104;1257;71223;-80
2023/06/01 07:49:07;;;;;;;4.40;2.00;;;;;;;26.01;25.28;100521.72;108118;1254;61108;-81
2023/06/01 07:51:36;;;;;;;4.50;1.90;;;;;;;26.08;25.26;100522.71;108149;1256;61247;-79
2023/06/01 07:54:03;;;;;;;6.20;2.10;;;;;;;26.10;24.75;100516.18;107994;1254;74575;-81
2023/06/01 07:56:30;;;;;;;5.60;1.90;;;;;;;26.10;25.10;100522.27;108056;1258;72587;-79
2023/06/01 07:58:57;;;;;;;26.40;4.50;;;;;;;26.16;24.82;100516.83;107980;1256;72698;-81
2023/06/01 08:01:24;;;;;;;3.10;1.80;;;;;;;26.25;24.58;100518.48;108017;1260;61781;-81
2023/06/01 08:03:52;;;;;;;4.30;1.70;;;;;;;26.24;23.66;100511.66;108059;1258;61343;-80
2023/06/01 08:06:22;;;;;;;3.60;1.60;;;;;;;26.17;24.16;100510.29;108006;1257;74465;-82
2023/06/01 08:08:49;;;;;;;4.30;1.90;;;;;;;26.22;24.19;100504.66;108023;1257;72727;-80
2023/06/01 08:11:16;;;;;;;5.50;1.80;;;;;;;26.30;24.16;100500.95;108006;1259;71538;-81
2023/06/01 08:13:45;;;;;;;4.50;2.20;;;;;;;26.35;24.17;100499.95;108002;1260;61118;-80
2023/06/01 08:16:13;;;;;;;5.40;1.80;;;;;;;26.41;24.10;100498.48;108031;1258;61167;-80
2023/06/01 08:18:40;;;;;;;6.10;1.90;;;;;;;26.48;24.07;100503.16;108093;1260;74662;-80
2023/06/01 08:21:10;;;;;;;6.20;2.00;;;;;;;26.50;23.70;100498.12;108033;1255;70430;-81
2023/06/01 08:23:38;;;;;;;3.90;2.00;;;;;;;26.55;24.28;100492.80;108115;1259;72668;-82
2023/06/01 08:26:05;;;;;;;8.10;2.30;;;;;;;26.65;24.24;100494.13;108067;1254;61333;-80
2023/06/01 08:28:32;;;;;;;5.60;1.80;;;;;;;26.70;24.46;100497.17;108125;1254;61336;-80
2023/06/01 08:31:00;;;;;;;6.20;1.80;;;;;;;26.75;24.09;100494.91;108134;1254;75160;-82
2023/06/01 08:33:28;;;;;;;5.00;1.80;;;;;;;26.85;23.70;100489.12;108108;1254;72856;-81
2023/06/01 08:35:55;;;;;;;4.80;1.70;;;;;;;26.91;23.61;100477.77;108135;1258;72518;-81
2023/06/01 08:38:22;;;;;;;4.70;1.90;;;;;;;26.97;24.08;100478.23;108137;1254;61085;-81
2023/06/01 08:40:49;;;;;;;4.00;2.00;;;;;;;27.07;23.94;100480.96;108129;1254;61232;-80
2023/06/01 08:43:19;;;;;;;8.20;2.20;;;;;;;27.17;23.66;100478.23;108067;1257;74642;-81
2023/06/01 08:45:51;;;;;;;6.20;2.00;;;;;;;27.27;23.17;100476.56;108051;1254;72751;-80
2023/06/01 08:48:19;;;;;;;6.90;2.30;;;;;;;27.32;22.97;100473.57;108145;1254;72572;-81
2023/06/01 08:50:50;;;;;;;5.90;1.90;;;;;;;27.33;22.76;100470.22;108156;1254;61229;-81
2023/06/01 08:53:18;;;;;;;6.50;1.90;;;;;;;27.33;22.47;100471.70;108056;1256;61237;-80
2023/06/01 08:55:46;;;;;;;5.90;1.90;;;;;;;27.40;22.43;100466.61;108038;1254;74682;-80
2023/06/01 08:58:14;;;;;;;6.30;1.60;;;;;;;27.42;22.74;100464.14;108059;1258;71258;-80
2023/06/01 09:00:41;;;;;;;4.30;2.00;;;;;;;27.47;22.60;100459.88;108009;1254;72863;-81
2023/06/01 09:03:07;;;;;;;30.90;4.00;;;;;;;27.52;22.73;100454.70;107981;1254;61218;-81
2023/06/01 09:05:35;;;;;;;3.40;2.00;;;;;;;27.60;22.25;100452.27;108007;1254;61253;-81
2023/06/01 09:08:02;;;;;;;7.20;2.30;;;;;;;27.65;21.94;100451.16;108119;1254;73274;-80
2023/06/01 09:10:29;;;;;;;6.50;2.20;;;;;;;27.64;21.74;100449.02;108127;1254;72527;-80
2023/06/01 09:12:56;;;;;;;4.10;2.10;;;;;;;27.60;22.15;100447.10;108170;1254;72466;-82
2023/06/01 09:15:25;;;;;;;4.00;1.90;;;;;;;27.63;22.08;100447.44;108198;1254;61129;-80
2023/06/01 09:18:05;;;;;;;5.10;1.90;;;;;;;27.66;21.06;100448.49;108108;1254;61240;-80
2023/06/01 09:20:33;;;;;;;;;;;;;;;27.59;21.08;100446.91;108125;1260;74664;-81
2023/06/01 09:23:00;;;;;;;4.20;1.90;;;;;;;27.59;21.20;100445.44;108148;1254;72555;-80
2023/06/01 09:25:28;;;;;;;3.30;1.80;;;;;;;27.61;21.41;100438.32;108134;1254;72869;-82
2023/06/01 09:27:56;;;;;;;3.30;1.70;;;;;;;27.72;21.55;100433.35;108169;1254;61272;-81
2023/06/01 09:30:24;;;;;;;4.70;2.10;;;;;;;27.85;21.59;100431.23;108167;1254;61965;-82
2023/06/01 09:33:09;;;;;;;7.30;1.90;;;;;;;27.96;21.60;100430.63;108153;1258;75909;-80
2023/06/01 09:35:44;;;;;;;5.60;1.90;;;;;;;28.03;21.77;100428.34;108153;1259;71288;-80
2023/06/01 09:38:12;;;;;;;6.20;2.10;;;;;;;28.03;21.79;100427.33;108133;1254;72410;-81
2023/06/01 09:40:40;;;;;;;3.90;2.00;;;;;;;28.00;21.46;100429.97;108152;1254;61088;-81
2023/06/01 09:43:28;;;;;;;4.10;1.90;;;;;;;27.97;21.77;100423.73;108013;1254;61151;-80
2023/06/01 09:46:13;;;;;;;3.40;1.70;;;;;;;28.06;21.42;100422.01;108153;1254;74807;-80
2023/06/01 09:48:42;;;;;;;5.20;2.00;;;;;;;28.12;21.47;100418.45;108156;1254;72569;-81
2023/06/01 09:51:22;;;;;;;4.20;1.80;;;;;;;28.22;21.56;100418.46;108128;1254;72344;-81
2023/06/01 09:53:49;;;;;;;4.20;1.80;;;;;;;28.38;21.12;100414.19;108133;1254;61233;-81
2023/06/01 09:56:16;;;;;;;6.70;2.10;;;;;;;28.41;21.54;100418.95;108112;1254;61250;-80
2023/06/01 09:58:43;;;;;;;4.10;1.90;;;;;;;28.32;21.27;100416.48;108110;1254;74681;-80
2023/06/01 10:01:12;;;;;;;4.30;2.30;;;;;;;28.25;21.22;100412.36;108111;1254;72770;-81
2023/06/01 10:03:41;;;;;;;4.20;1.90;;;;;;;28.27;21.29;100410.17;108071;1254;73883;-81
2023/06/01 10:06:10;;;;;;;4.00;1.80;;;;;;;28.26;20.86;100405.45;108124;1254;61285;-82
2023/06/01 10:08:37;;;;;;;5.00;2.00;;;;;;;28.29;20.91;100405.17;108150;1254;61093;-82
2023/06/01 10:11:04;;;;;;;4.50;1.80;;;;;;;28.38;21.47;100408.93;108052;1254;74631;-81
2023/06/01 10:13:31;;;;;;;4.10;1.70;;;;;;;28.44;20.92;100407.82;108128;1254;72745;-81
2023/06/01 10:15:58;;;;;;;3.50;2.00;;;;;;;28.42;20.80;100404.73;107880;1255;73884;-80
2023/06/01 10:18:25;;;;;;;4.10;1.90;;;;;;;28.45;20.89;100404.13;108126;1254;61320;-80
2023/06/01 10:20:51;;;;;;;7.10;2.10;;;;;;;28.55;20.72;100397.45;108064;1258;61148;-81
2023/06/01 10:23:20;;;;;;;5.40;1.90;;;;;;;28.60;20.91;100395.45;108053;1257;74668;-80
2023/06/01 10:25:58;;;;;;;5.30;1.90;;;;;;;28.64;21.27;100395.77;108009;1258;73185;-81
2023/06/01 10:28:29;;;;;;;5.40;2.30;;;;;;;28.69;21.13;100395.10;107896;1257;72761;-81
2023/06/01 10:31:33;;;;;;;2.60;1.90;;;;;;;28.73;20.81;100392.92;107946;1257;61160;-83
2023/06/01 10:34:00;;;;;;;4.40;1.90;;;;;;;28.86;21.32;100384.66;108061;1257;61234;-81
2023/06/01 10:36:53;;;;;;;4.00;1.50;;;;;;;29.01;21.22;100385.38;108007;1257;74355;-81
2023/06/01 10:39:26;;;;;;;5.00;2.00;;;;;;;29.11;20.88;100383.55;108046;1256;72537;-81
2023/06/01 10:42:22;;;;;;;3.60;1.60;;;;;;;29.16;21.01;100377.11;107998;1256;72900;-81
2023/06/01 10:44:49;;;;;;;4.20;2.20;;;;;;;29.15;20.46;100376.09;107806;1256;61121;-80
2023/06/01 10:47:17;;;;;;;6.70;2.20;;;;;;;29.11;20.28;100369.88;108080;1257;61183;-81
2023/06/01 10:49:46;;;;;;;5.90;2.30;;;;;;;29.10;20.72;100369.77;108067;1257;73569;-81
2023/06/01 10:52:38;;;;;;;5.80;2.30;;;;;;;29.15;20.60;100364.46;108104;1257;72597;-81
2023/06/01 10:55:11;;;;;;;8.40;2.40;;;;;;;29.16;20.58;100362.91;108070;1254;72327;-81
2023/06/01 10:57:38;;;;;;;4.00;2.00;;;;;;;29.23;20.66;100357.02;108039;1256;61590;-81
2023/06/01 11:00:16;;;;;;;3.40;2.10;;;;;;;29.47;20.92;100356.77;108083;1256;61011;-80
2023/06/01 11:03:01;;;;;;;4.70;1.80;;;;;;;29.64;20.36;100355.39;108063;1257;65338;-82
2023/06/01 11:05:46;;;;;;;5.70;2.00;;;;;;;29.71;19.86;100348.48;108032;1257;71778;-81
2023/06/01 11:08:21;;;;;;;72.90;12.70;;;;;;;29.61;19.88;100350.90;108079;1256;64526;-80
2023/06/01 11:10:54;;;;;;;21.70;5.40;;;;;;;29.44;20.06;100350.55;108043;1254;61250;-80
2023/06/01 11:13:29;;;;;;;5.60;2.50;;;;;;;29.32;20.22;100343.13;108063;1254;61205;-81
2023/06/01 11:16:20;;;;;;;6.20;2.40;;;;;;;29.33;20.14;100340.23;107997;1254;66071;-81
2023/06/01 11:19:00;;;;;;;7.60;2.30;;;;;;;29.34;20.16;100335.27;108012;1257;63921;-80
2023/06/01 11:21:36;;;;;;;5.50;2.40;;;;;;;29.18;20.64;100328.08;108011;1259;72455;-80
2023/06/01 11:24:08;;;;;;;7.40;2.80;;;;;;;29.18;20.76;100328.72;108038;1256;61228;-81
2023/06/01 11:26:37;;;;;;;4.70;2.40;;;;;;;29.22;20.54;100325.75;108108;1254;61048;-80
2023/06/01 11:29:10;;;;;;;4.90;2.40;;;;;;;29.31;20.19;100321.36;108039;1254;66033;-80